sensor_id;sensor_type;location;lat;lon;timestamp;P1;durP1;ratioP1;P2;durP2;ratioP2
28545;SDS011;15749;49.606;8.738;2023-09-30T00:01:28;1.63;;;1.13;;
28545;SDS011;15749;49.606;8.738;2023-09-30T00:03:57;2.03;;;0.95;;
28545;SDS011;15749;49.606;8.738;2023-09-30T00:06:28;2.10;;;1.20;;
28545;SDS011;15749;49.606;8.738;2023-09-30T00:08:59;1.52;;;1.13;;
28545;SDS011;15749;49.606;8.738;2023-09-30T00:11:28;1.25;;;1.02;;
28545;SDS011;15749;49.606;8.738;2023-09-30T00:13:58;2.33;;;1.30;;
28545;SDS011;15749;49.606;8.738;2023-09-30T00:16:27;1.48;;;1.20;;
28545;SDS011;15749;49.606;8.738;2023-09-30T00:18:56;3.35;;;1.05;;
28545;SDS011;15749;49.606;8.738;2023-09-30T00:21:26;1.95;;;1.30;;
28545;SDS011;15749;49.606;8.738;2023-09-30T00:23:55;1.90;;;1.17;;
28545;SDS011;15749;49.606;8.738;2023-09-30T00:26:26;2.05;;;1.10;;
28545;SDS011;15749;49.606;8.738;2023-09-30T00:28:55;1.77;;;1.20;;
28545;SDS011;15749;49.606;8.738;2023-09-30T00:31:24;2.80;;;1.25;;
28545;SDS011;15749;49.606;8.738;2023-09-30T00:34:09;2.22;;;1.25;;
28545;SDS011;15749;49.606;8.738;2023-09-30T00:36:38;1.33;;;0.90;;
28545;SDS011;15749;49.606;8.738;2023-09-30T00:39:08;2.40;;;1.30;;
28545;SDS011;15749;49.606;8.738;2023-09-30T00:41:40;2.28;;;1.20;;
28545;SDS011;15749;49.606;8.738;2023-09-30T00:44:09;1.70;;;1.20;;
28545;SDS011;15749;49.606;8.738;2023-09-30T00:46:39;1.70;;;0.93;;
28545;SDS011;15749;49.606;8.738;2023-09-30T00:49:10;2.40;;;1.23;;
28545;SDS011;15749;49.606;8.738;2023-09-30T00:51:42;1.75;;;1.50;;
28545;SDS011;15749;49.606;8.738;2023-09-30T00:54:14;2.38;;;1.60;;
28545;SDS011;15749;49.606;8.738;2023-09-30T00:56:46;1.70;;;1.30;;
28545;SDS011;15749;49.606;8.738;2023-09-30T00:59:17;1.92;;;1.27;;
28545;SDS011;15749;49.606;8.738;2023-09-30T01:01:47;1.90;;;1.35;;
28545;SDS011;15749;49.606;8.738;2023-09-30T01:04:17;1.98;;;1.10;;
28545;SDS011;15749;49.606;8.738;2023-09-30T01:06:48;1.63;;;1.35;;
28545;SDS011;15749;49.606;8.738;2023-09-30T01:09:17;1.92;;;1.50;;
28545;SDS011;15749;49.606;8.738;2023-09-30T01:11:48;2.03;;;1.33;;
28545;SDS011;15749;49.606;8.738;2023-09-30T01:14:24;1.88;;;1.40;;
28545;SDS011;15749;49.606;8.738;2023-09-30T01:16:54;2.60;;;1.45;;
28545;SDS011;15749;49.606;8.738;2023-09-30T01:19:25;2.00;;;1.42;;
28545;SDS011;15749;49.606;8.738;2023-09-30T01:21:56;2.17;;;1.40;;
28545;SDS011;15749;49.606;8.738;2023-09-30T01:24:28;2.42;;;1.60;;
28545;SDS011;15749;49.606;8.738;2023-09-30T01:26:57;1.52;;;1.40;;
28545;SDS011;15749;49.606;8.738;2023-09-30T01:29:26;1.85;;;1.30;;
28545;SDS011;15749;49.606;8.738;2023-09-30T01:31:56;2.20;;;1.60;;
28545;SDS011;15749;49.606;8.738;2023-09-30T01:34:25;2.47;;;1.70;;
28545;SDS011;15749;49.606;8.738;2023-09-30T01:36:56;1.75;;;1.23;;
28545;SDS011;15749;49.606;8.738;2023-09-30T01:39:25;2.78;;;1.10;;
28545;SDS011;15749;49.606;8.738;2023-09-30T01:41:54;1.67;;;1.10;;
28545;SDS011;15749;49.606;8.738;2023-09-30T01:44:23;2.00;;;1.58;;
28545;SDS011;15749;49.606;8.738;2023-09-30T01:46:53;1.60;;;1.20;;
28545;SDS011;15749;49.606;8.738;2023-09-30T01:49:22;1.45;;;1.00;;
28545;SDS011;15749;49.606;8.738;2023-09-30T01:51:56;2.03;;;1.60;;
28545;SDS011;15749;49.606;8.738;2023-09-30T01:54:25;2.55;;;1.42;;
28545;SDS011;15749;49.606;8.738;2023-09-30T01:56:55;1.98;;;1.38;;
28545;SDS011;15749;49.606;8.738;2023-09-30T01:59:25;4.07;;;1.50;;
28545;SDS011;15749;49.606;8.738;2023-09-30T02:01:55;3.63;;;1.48;;
28545;SDS011;15749;49.606;8.738;2023-09-30T02:04:24;2.40;;;1.83;;
28545;SDS011;15749;49.606;8.738;2023-09-30T02:06:53;2.78;;;1.50;;
28545;SDS011;15749;49.606;8.738;2023-09-30T02:09:23;2.70;;;1.67;;
28545;SDS011;15749;49.606;8.738;2023-09-30T02:11:53;1.20;;;1.10;;
28545;SDS011;15749;49.606;8.738;2023-09-30T02:14:22;3.05;;;1.15;;
28545;SDS011;15749;49.606;8.738;2023-09-30T02:16:52;1.30;;;1.20;;
28545;SDS011;15749;49.606;8.738;2023-09-30T02:19:21;1.67;;;1.23;;
28545;SDS011;15749;49.606;8.738;2023-09-30T02:21:50;1.75;;;1.00;;
28545;SDS011;15749;49.606;8.738;2023-09-30T02:24:19;1.92;;;1.30;;
28545;SDS011;15749;49.606;8.738;2023-09-30T02:26:51;1.63;;;1.17;;
28545;SDS011;15749;49.606;8.738;2023-09-30T02:29:22;1.20;;;1.00;;
28545;SDS011;15749;49.606;8.738;2023-09-30T02:31:51;1.67;;;1.33;;
28545;SDS011;15749;49.606;8.738;2023-09-30T02:34:22;1.38;;;1.27;;
28545;SDS011;15749;49.606;8.738;2023-09-30T02:36:51;2.80;;;1.40;;
28545;SDS011;15749;49.606;8.738;2023-09-30T02:39:22;1.85;;;1.30;;
28545;SDS011;15749;49.606;8.738;2023-09-30T02:41:59;3.50;;;1.70;;
28545;SDS011;15749;49.606;8.738;2023-09-30T02:44:29;1.85;;;1.30;;
28545;SDS011;15749;49.606;8.738;2023-09-30T02:46:58;1.90;;;1.45;;
28545;SDS011;15749;49.606;8.738;2023-09-30T02:49:27;2.57;;;1.53;;
28545;SDS011;15749;49.606;8.738;2023-09-30T02:51:56;1.73;;;1.33;;
28545;SDS011;15749;49.606;8.738;2023-09-30T02:54:25;2.83;;;1.48;;
28545;SDS011;15749;49.606;8.738;2023-09-30T02:56:54;3.00;;;1.57;;
28545;SDS011;15749;49.606;8.738;2023-09-30T02:59:25;2.23;;;1.50;;
28545;SDS011;15749;49.606;8.738;2023-09-30T03:01:54;1.60;;;1.33;;
28545;SDS011;15749;49.606;8.738;2023-09-30T03:04:23;3.03;;;1.50;;
28545;SDS011;15749;49.606;8.738;2023-09-30T03:06:55;2.05;;;1.42;;
28545;SDS011;15749;49.606;8.738;2023-09-30T03:09:25;1.80;;;1.30;;
28545;SDS011;15749;49.606;8.738;2023-09-30T03:11:54;2.03;;;1.40;;
28545;SDS011;15749;49.606;8.738;2023-09-30T03:14:27;2.72;;;1.20;;
28545;SDS011;15749;49.606;8.738;2023-09-30T03:16:58;2.63;;;1.60;;
28545;SDS011;15749;49.606;8.738;2023-09-30T03:19:27;2.10;;;1.53;;
28545;SDS011;15749;49.606;8.738;2023-09-30T03:21:56;3.15;;;1.80;;
28545;SDS011;15749;49.606;8.738;2023-09-30T03:24:25;1.92;;;1.50;;
28545;SDS011;15749;49.606;8.738;2023-09-30T03:26:55;2.90;;;1.50;;
28545;SDS011;15749;49.606;8.738;2023-09-30T03:29:25;2.70;;;1.50;;
28545;SDS011;15749;49.606;8.738;2023-09-30T03:31:55;2.38;;;1.50;;
28545;SDS011;15749;49.606;8.738;2023-09-30T03:34:25;4.93;;;1.73;;
28545;SDS011;15749;49.606;8.738;2023-09-30T03:36:54;4.68;;;1.73;;
28545;SDS011;15749;49.606;8.738;2023-09-30T03:39:26;1.80;;;1.50;;
28545;SDS011;15749;49.606;8.738;2023-09-30T03:41:55;2.90;;;1.77;;
28545;SDS011;15749;49.606;8.738;2023-09-30T03:44:25;2.60;;;1.73;;
28545;SDS011;15749;49.606;8.738;2023-09-30T03:46:56;2.30;;;1.73;;
28545;SDS011;15749;49.606;8.738;2023-09-30T03:49:28;2.33;;;1.77;;
28545;SDS011;15749;49.606;8.738;2023-09-30T03:51:57;2.10;;;1.50;;
28545;SDS011;15749;49.606;8.738;2023-09-30T03:54:26;1.93;;;1.60;;
28545;SDS011;15749;49.606;8.738;2023-09-30T03:56:55;2.00;;;1.48;;
28545;SDS011;15749;49.606;8.738;2023-09-30T03:59:24;2.53;;;1.77;;
28545;SDS011;15749;49.606;8.738;2023-09-30T04:01:53;1.87;;;1.50;;
28545;SDS011;15749;49.606;8.738;2023-09-30T04:04:24;4.22;;;2.28;;
28545;SDS011;15749;49.606;8.738;2023-09-30T04:06:53;2.63;;;2.10;;
28545;SDS011;15749;49.606;8.738;2023-09-30T04:09:23;2.83;;;2.08;;
28545;SDS011;15749;49.606;8.738;2023-09-30T04:11:52;3.93;;;2.00;;
28545;SDS011;15749;49.606;8.738;2023-09-30T04:14:21;3.07;;;1.80;;
28545;SDS011;15749;49.606;8.738;2023-09-30T04:16:52;2.10;;;1.90;;
28545;SDS011;15749;49.606;8.738;2023-09-30T04:19:21;3.43;;;2.00;;
28545;SDS011;15749;49.606;8.738;2023-09-30T04:21:52;2.73;;;2.07;;
28545;SDS011;15749;49.606;8.738;2023-09-30T04:24:21;3.03;;;2.10;;
28545;SDS011;15749;49.606;8.738;2023-09-30T04:26:51;3.43;;;1.90;;
28545;SDS011;15749;49.606;8.738;2023-09-30T04:29:24;3.33;;;2.00;;
28545;SDS011;15749;49.606;8.738;2023-09-30T04:31:53;3.38;;;2.05;;
28545;SDS011;15749;49.606;8.738;2023-09-30T04:34:24;3.80;;;1.83;;
28545;SDS011;15749;49.606;8.738;2023-09-30T04:36:54;2.00;;;1.40;;
28545;SDS011;15749;49.606;8.738;2023-09-30T04:39:23;3.50;;;1.40;;
28545;SDS011;15749;49.606;8.738;2023-09-30T04:41:53;1.67;;;1.33;;
28545;SDS011;15749;49.606;8.738;2023-09-30T04:44:22;2.53;;;1.80;;
28545;SDS011;15749;49.606;8.738;2023-09-30T04:46:55;3.53;;;1.80;;
28545;SDS011;15749;49.606;8.738;2023-09-30T04:49:25;2.67;;;1.67;;
28545;SDS011;15749;49.606;8.738;2023-09-30T04:51:55;2.17;;;1.70;;
28545;SDS011;15749;49.606;8.738;2023-09-30T04:54:24;1.83;;;1.43;;
28545;SDS011;15749;49.606;8.738;2023-09-30T04:56:53;1.43;;;1.33;;
28545;SDS011;15749;49.606;8.738;2023-09-30T04:59:22;3.07;;;1.80;;
28545;SDS011;15749;49.606;8.738;2023-09-30T05:01:52;3.10;;;2.13;;
28545;SDS011;15749;49.606;8.738;2023-09-30T05:04:21;3.70;;;2.43;;
28545;SDS011;15749;49.606;8.738;2023-09-30T05:06:54;3.03;;;1.97;;
28545;SDS011;15749;49.606;8.738;2023-09-30T05:09:23;3.07;;;2.20;;
28545;SDS011;15749;49.606;8.738;2023-09-30T05:11:53;3.50;;;2.23;;
28545;SDS011;15749;49.606;8.738;2023-09-30T05:14:22;2.63;;;1.97;;
28545;SDS011;15749;49.606;8.738;2023-09-30T05:16:51;3.13;;;1.80;;
28545;SDS011;15749;49.606;8.738;2023-09-30T05:19:21;2.43;;;1.77;;
28545;SDS011;15749;49.606;8.738;2023-09-30T05:21:50;1.83;;;1.43;;
28545;SDS011;15749;49.606;8.738;2023-09-30T05:24:20;1.70;;;1.50;;
28545;SDS011;15749;49.606;8.738;2023-09-30T05:26:49;3.13;;;1.83;;
28545;SDS011;15749;49.606;8.738;2023-09-30T05:29:18;3.77;;;1.93;;
28545;SDS011;15749;49.606;8.738;2023-09-30T05:31:47;1.93;;;1.73;;
28545;SDS011;15749;49.606;8.738;2023-09-30T05:34:17;2.30;;;1.60;;
28545;SDS011;15749;49.606;8.738;2023-09-30T05:36:46;1.53;;;1.30;;
28545;SDS011;15749;49.606;8.738;2023-09-30T05:39:18;3.43;;;2.20;;
28545;SDS011;15749;49.606;8.738;2023-09-30T05:41:50;2.57;;;1.90;;
28545;SDS011;15749;49.606;8.738;2023-09-30T08:17:28;4.15;;;2.50;;
28545;SDS011;15749;49.606;8.738;2023-09-30T09:24:12;2.28;;;1.52;;
28545;SDS011;15749;49.606;8.738;2023-09-30T09:28:14;5.70;;;2.42;;
28545;SDS011;15749;49.606;8.738;2023-09-30T09:30:48;6.85;;;3.10;;
28545;SDS011;15749;49.606;8.738;2023-09-30T09:33:21;5.85;;;3.22;;
28545;SDS011;15749;49.606;8.738;2023-09-30T09:35:58;3.50;;;2.45;;
28545;SDS011;15749;49.606;8.738;2023-09-30T09:38:43;4.22;;;2.80;;
28545;SDS011;15749;49.606;8.738;2023-09-30T09:41:18;4.70;;;3.00;;
28545;SDS011;15749;49.606;8.738;2023-09-30T09:43:52;5.18;;;3.22;;
28545;SDS011;15749;49.606;8.738;2023-09-30T09:46:27;3.20;;;2.72;;
28545;SDS011;15749;49.606;8.738;2023-09-30T09:49:08;4.53;;;2.30;;
28545;SDS011;15749;49.606;8.738;2023-09-30T09:51:48;4.25;;;2.95;;
28545;SDS011;15749;49.606;8.738;2023-09-30T09:54:22;5.10;;;3.05;;
28545;SDS011;15749;49.606;8.738;2023-09-30T09:56:58;4.38;;;2.47;;
28545;SDS011;15749;49.606;8.738;2023-09-30T09:59:39;4.97;;;2.80;;
28545;SDS011;15749;49.606;8.738;2023-09-30T10:02:18;5.55;;;3.13;;
28545;SDS011;15749;49.606;8.738;2023-09-30T10:04:51;5.22;;;3.03;;
28545;SDS011;15749;49.606;8.738;2023-09-30T10:07:27;5.75;;;3.00;;
28545;SDS011;15749;49.606;8.738;2023-09-30T10:10:02;5.10;;;3.05;;
28545;SDS011;15749;49.606;8.738;2023-09-30T10:12:40;4.28;;;3.00;;
28545;SDS011;15749;49.606;8.738;2023-09-30T10:18:19;2.63;;;1.80;;
28545;SDS011;15749;49.606;8.738;2023-09-30T10:21:07;5.25;;;2.60;;
28545;SDS011;15749;49.606;8.738;2023-09-30T10:23:42;3.42;;;2.45;;
28545;SDS011;15749;49.606;8.738;2023-09-30T10:26:21;5.88;;;3.15;;
28545;SDS011;15749;49.606;8.738;2023-09-30T10:28:55;5.65;;;3.05;;
28545;SDS011;15749;49.606;8.738;2023-09-30T10:31:49;4.50;;;2.35;;
28545;SDS011;15749;49.606;8.738;2023-09-30T10:34:24;3.97;;;2.28;;
28545;SDS011;15749;49.606;8.738;2023-09-30T10:37:15;4.88;;;2.70;;
28545;SDS011;15749;49.606;8.738;2023-09-30T10:40:08;5.13;;;2.85;;
28545;SDS011;15749;49.606;8.738;2023-09-30T10:42:48;5.10;;;2.78;;
28545;SDS011;15749;49.606;8.738;2023-09-30T10:49:16;5.15;;;2.88;;
28545;SDS011;15749;49.606;8.738;2023-09-30T10:52:05;3.17;;;2.17;;
28545;SDS011;15749;49.606;8.738;2023-09-30T10:54:47;3.90;;;2.17;;
28545;SDS011;15749;49.606;8.738;2023-09-30T10:57:34;4.65;;;2.85;;
28545;SDS011;15749;49.606;8.738;2023-09-30T11:00:13;3.88;;;2.63;;
28545;SDS011;15749;49.606;8.738;2023-09-30T11:02:51;2.95;;;2.00;;
28545;SDS011;15749;49.606;8.738;2023-09-30T11:05:34;4.18;;;2.88;;
28545;SDS011;15749;49.606;8.738;2023-09-30T11:08:16;4.30;;;2.22;;
28545;SDS011;15749;49.606;8.738;2023-09-30T11:10:57;4.43;;;2.47;;
28545;SDS011;15749;49.606;8.738;2023-09-30T11:13:33;4.50;;;2.75;;
28545;SDS011;15749;49.606;8.738;2023-09-30T11:38:56;4.90;;;2.80;;
28545;SDS011;15749;49.606;8.738;2023-09-30T11:42:39;5.85;;;3.15;;
28545;SDS011;15749;49.606;8.738;2023-09-30T11:46:22;3.53;;;2.03;;
28545;SDS011;15749;49.606;8.738;2023-09-30T11:49:57;5.75;;;2.58;;
28545;SDS011;15749;49.606;8.738;2023-09-30T12:40:05;5.22;;;2.65;;
28545;SDS011;15749;49.606;8.738;2023-09-30T12:44:28;3.95;;;2.10;;
28545;SDS011;15749;49.606;8.738;2023-09-30T12:48:38;5.15;;;2.83;;
28545;SDS011;15749;49.606;8.738;2023-09-30T13:06:19;3.70;;;1.73;;
28545;SDS011;15749;49.606;8.738;2023-09-30T13:08:48;4.43;;;3.08;;
28545;SDS011;15749;49.606;8.738;2023-09-30T13:11:29;6.15;;;3.58;;
28545;SDS011;15749;49.606;8.738;2023-09-30T13:14:02;5.38;;;3.60;;
28545;SDS011;15749;49.606;8.738;2023-09-30T13:16:31;7.03;;;3.63;;
28545;SDS011;15749;49.606;8.738;2023-09-30T13:19:01;7.70;;;4.20;;
28545;SDS011;15749;49.606;8.738;2023-09-30T13:21:32;4.80;;;3.35;;
28545;SDS011;15749;49.606;8.738;2023-09-30T13:24:02;5.15;;;3.70;;
28545;SDS011;15749;49.606;8.738;2023-09-30T13:26:36;6.60;;;4.07;;
28545;SDS011;15749;49.606;8.738;2023-09-30T13:29:06;6.13;;;3.00;;
28545;SDS011;15749;49.606;8.738;2023-09-30T13:31:37;4.22;;;2.80;;
28545;SDS011;15749;49.606;8.738;2023-09-30T13:34:07;4.05;;;2.60;;
28545;SDS011;15749;49.606;8.738;2023-09-30T13:36:38;3.15;;;2.47;;
28545;SDS011;15749;49.606;8.738;2023-09-30T13:39:08;4.10;;;2.53;;
28545;SDS011;15749;49.606;8.738;2023-09-30T13:41:40;3.60;;;2.47;;
28545;SDS011;15749;49.606;8.738;2023-09-30T13:44:10;5.53;;;2.75;;
28545;SDS011;15749;49.606;8.738;2023-09-30T13:56:17;5.03;;;2.40;;
28545;SDS011;15749;49.606;8.738;2023-09-30T13:58:48;3.95;;;2.47;;
28545;SDS011;15749;49.606;8.738;2023-09-30T14:01:18;3.10;;;2.25;;
28545;SDS011;15749;49.606;8.738;2023-09-30T14:03:48;3.25;;;2.58;;
28545;SDS011;15749;49.606;8.738;2023-09-30T14:06:24;4.25;;;2.80;;
28545;SDS011;15749;49.606;8.738;2023-09-30T14:09:04;4.65;;;3.05;;
28545;SDS011;15749;49.606;8.738;2023-09-30T14:12:11;6.20;;;3.13;;
28545;SDS011;15749;49.606;8.738;2023-09-30T14:15:04;6.07;;;3.45;;
28545;SDS011;15749;49.606;8.738;2023-09-30T14:17:54;4.60;;;3.10;;
28545;SDS011;15749;49.606;8.738;2023-09-30T14:20:35;4.32;;;3.00;;
28545;SDS011;15749;49.606;8.738;2023-09-30T14:23:25;4.93;;;2.85;;
28545;SDS011;15749;49.606;8.738;2023-09-30T14:26:17;3.20;;;2.75;;
28545;SDS011;15749;49.606;8.738;2023-09-30T14:28:55;5.53;;;2.90;;
28545;SDS011;15749;49.606;8.738;2023-09-30T14:31:26;4.40;;;2.85;;
28545;SDS011;15749;49.606;8.738;2023-09-30T14:33:58;4.55;;;3.00;;
28545;SDS011;15749;49.606;8.738;2023-09-30T14:36:30;4.22;;;2.75;;
28545;SDS011;15749;49.606;8.738;2023-09-30T14:39:06;4.50;;;3.10;;
28545;SDS011;15749;49.606;8.738;2023-09-30T14:41:41;5.00;;;3.22;;
28545;SDS011;15749;49.606;8.738;2023-09-30T14:44:13;3.65;;;3.00;;
28545;SDS011;15749;49.606;8.738;2023-09-30T14:46:44;3.53;;;2.75;;
28545;SDS011;15749;49.606;8.738;2023-09-30T14:49:17;6.20;;;3.22;;
28545;SDS011;15749;49.606;8.738;2023-09-30T14:51:47;3.88;;;2.47;;
28545;SDS011;15749;49.606;8.738;2023-09-30T14:54:16;3.92;;;3.05;;
28545;SDS011;15749;49.606;8.738;2023-09-30T14:56:47;4.10;;;2.85;;
28545;SDS011;15749;49.606;8.738;2023-09-30T14:59:18;3.80;;;2.78;;
28545;SDS011;15749;49.606;8.738;2023-09-30T15:01:47;4.90;;;2.92;;
28545;SDS011;15749;49.606;8.738;2023-09-30T15:04:17;4.88;;;2.75;;
28545;SDS011;15749;49.606;8.738;2023-09-30T15:06:46;5.32;;;2.80;;
28545;SDS011;15749;49.606;8.738;2023-09-30T15:09:15;5.22;;;2.83;;
28545;SDS011;15749;49.606;8.738;2023-09-30T15:11:45;3.30;;;2.60;;
28545;SDS011;15749;49.606;8.738;2023-09-30T15:14:14;3.58;;;2.67;;
28545;SDS011;15749;49.606;8.738;2023-09-30T15:16:45;3.50;;;2.50;;
28545;SDS011;15749;49.606;8.738;2023-09-30T15:19:14;3.75;;;2.55;;
28545;SDS011;15749;49.606;8.738;2023-09-30T15:21:45;3.58;;;2.85;;
28545;SDS011;15749;49.606;8.738;2023-09-30T15:24:14;4.55;;;2.50;;
28545;SDS011;15749;49.606;8.738;2023-09-30T15:26:43;3.28;;;2.33;;
28545;SDS011;15749;49.606;8.738;2023-09-30T15:29:13;4.38;;;2.30;;
28545;SDS011;15749;49.606;8.738;2023-09-30T15:31:44;4.40;;;2.80;;
28545;SDS011;15749;49.606;8.738;2023-09-30T15:34:13;4.03;;;2.83;;
28545;SDS011;15749;49.606;8.738;2023-09-30T15:36:43;4.97;;;2.90;;
28545;SDS011;15749;49.606;8.738;2023-09-30T15:39:12;4.20;;;2.70;;
28545;SDS011;15749;49.606;8.738;2023-09-30T15:41:47;4.50;;;2.70;;
28545;SDS011;15749;49.606;8.738;2023-09-30T15:44:16;3.75;;;2.90;;
28545;SDS011;15749;49.606;8.738;2023-09-30T15:46:47;5.68;;;3.00;;
28545;SDS011;15749;49.606;8.738;2023-09-30T15:49:16;4.40;;;2.88;;
28545;SDS011;15749;49.606;8.738;2023-09-30T15:51:45;4.70;;;3.17;;
28545;SDS011;15749;49.606;8.738;2023-09-30T15:54:15;4.05;;;2.85;;
28545;SDS011;15749;49.606;8.738;2023-09-30T15:56:44;3.75;;;2.75;;
28545;SDS011;15749;49.606;8.738;2023-09-30T15:59:22;3.35;;;2.60;;
28545;SDS011;15749;49.606;8.738;2023-09-30T16:01:53;3.05;;;2.53;;
28545;SDS011;15749;49.606;8.738;2023-09-30T16:04:22;3.75;;;2.78;;
28545;SDS011;15749;49.606;8.738;2023-09-30T16:06:52;4.72;;;3.08;;
28545;SDS011;15749;49.606;8.738;2023-09-30T16:09:22;4.55;;;3.08;;
28545;SDS011;15749;49.606;8.738;2023-09-30T16:11:51;4.40;;;2.92;;
28545;SDS011;15749;49.606;8.738;2023-09-30T16:14:20;3.85;;;2.50;;
28545;SDS011;15749;49.606;8.738;2023-09-30T16:16:49;4.10;;;2.60;;
28545;SDS011;15749;49.606;8.738;2023-09-30T16:19:20;4.20;;;2.90;;
28545;SDS011;15749;49.606;8.738;2023-09-30T16:21:49;4.68;;;2.78;;
28545;SDS011;15749;49.606;8.738;2023-09-30T16:24:19;4.85;;;2.88;;
28545;SDS011;15749;49.606;8.738;2023-09-30T16:26:49;3.05;;;2.35;;
28545;SDS011;15749;49.606;8.738;2023-09-30T16:29:18;4.22;;;2.58;;
28545;SDS011;15749;49.606;8.738;2023-09-30T16:31:47;4.53;;;3.55;;
28545;SDS011;15749;49.606;8.738;2023-09-30T16:34:16;4.07;;;3.30;;
28545;SDS011;15749;49.606;8.738;2023-09-30T16:36:47;4.43;;;3.28;;
28545;SDS011;15749;49.606;8.738;2023-09-30T16:39:16;4.00;;;3.15;;
28545;SDS011;15749;49.606;8.738;2023-09-30T16:41:45;4.95;;;3.28;;
28545;SDS011;15749;49.606;8.738;2023-09-30T16:44:15;4.32;;;3.28;;
28545;SDS011;15749;49.606;8.738;2023-09-30T16:46:44;3.85;;;3.03;;
28545;SDS011;15749;49.606;8.738;2023-09-30T16:49:13;4.43;;;3.22;;
28545;SDS011;15749;49.606;8.738;2023-09-30T16:51:43;4.38;;;3.40;;
28545;SDS011;15749;49.606;8.738;2023-09-30T16:54:13;4.28;;;3.13;;
28545;SDS011;15749;49.606;8.738;2023-09-30T16:56:43;4.72;;;3.20;;
28545;SDS011;15749;49.606;8.738;2023-09-30T16:59:12;3.85;;;3.15;;
28545;SDS011;15749;49.606;8.738;2023-09-30T17:01:42;5.57;;;3.20;;
28545;SDS011;15749;49.606;8.738;2023-09-30T17:04:12;4.43;;;3.17;;
28545;SDS011;15749;49.606;8.738;2023-09-30T17:06:41;4.30;;;3.00;;
28545;SDS011;15749;49.606;8.738;2023-09-30T17:09:11;5.38;;;3.40;;
28545;SDS011;15749;49.606;8.738;2023-09-30T17:11:41;6.05;;;3.47;;
28545;SDS011;15749;49.606;8.738;2023-09-30T17:14:10;5.35;;;3.47;;
28545;SDS011;15749;49.606;8.738;2023-09-30T17:16:39;4.45;;;3.40;;
28545;SDS011;15749;49.606;8.738;2023-09-30T17:19:09;4.00;;;3.08;;
28545;SDS011;15749;49.606;8.738;2023-09-30T17:21:38;4.95;;;3.33;;
28545;SDS011;15749;49.606;8.738;2023-09-30T17:24:07;4.25;;;3.10;;
28545;SDS011;15749;49.606;8.738;2023-09-30T17:26:36;3.95;;;3.00;;
28545;SDS011;15749;49.606;8.738;2023-09-30T17:29:09;4.38;;;2.97;;
28545;SDS011;15749;49.606;8.738;2023-09-30T17:31:38;4.65;;;2.83;;
28545;SDS011;15749;49.606;8.738;2023-09-30T17:34:08;3.80;;;3.10;;
28545;SDS011;15749;49.606;8.738;2023-09-30T17:36:37;6.68;;;3.95;;
28545;SDS011;15749;49.606;8.738;2023-09-30T17:39:07;5.45;;;3.67;;
28545;SDS011;15749;49.606;8.738;2023-09-30T17:41:36;7.10;;;5.18;;
28545;SDS011;15749;49.606;8.738;2023-09-30T17:44:11;5.70;;;3.65;;
28545;SDS011;15749;49.606;8.738;2023-09-30T17:46:41;3.83;;;2.88;;
28545;SDS011;15749;49.606;8.738;2023-09-30T17:49:14;5.43;;;3.05;;
28545;SDS011;15749;49.606;8.738;2023-09-30T17:51:46;5.10;;;3.25;;
28545;SDS011;15749;49.606;8.738;2023-09-30T17:54:19;3.72;;;3.00;;
28545;SDS011;15749;49.606;8.738;2023-09-30T17:56:51;3.67;;;2.80;;
28545;SDS011;15749;49.606;8.738;2023-09-30T17:59:23;4.47;;;2.88;;
28545;SDS011;15749;49.606;8.738;2023-09-30T18:01:56;8.88;;;3.38;;
28545;SDS011;15749;49.606;8.738;2023-09-30T18:04:25;4.65;;;3.15;;
28545;SDS011;15749;49.606;8.738;2023-09-30T18:06:55;3.30;;;2.83;;
28545;SDS011;15749;49.606;8.738;2023-09-30T18:09:28;5.78;;;3.15;;
28545;SDS011;15749;49.606;8.738;2023-09-30T18:11:58;4.55;;;3.05;;
28545;SDS011;15749;49.606;8.738;2023-09-30T18:14:33;4.13;;;3.13;;
28545;SDS011;15749;49.606;8.738;2023-09-30T18:17:06;4.57;;;3.00;;
28545;SDS011;15749;49.606;8.738;2023-09-30T18:19:38;4.03;;;2.90;;
28545;SDS011;15749;49.606;8.738;2023-09-30T18:22:16;3.90;;;3.05;;
28545;SDS011;15749;49.606;8.738;2023-09-30T18:28:15;4.35;;;2.85;;
28545;SDS011;15749;49.606;8.738;2023-09-30T18:30:48;3.40;;;2.70;;
28545;SDS011;15749;49.606;8.738;2023-09-30T18:33:18;4.40;;;2.88;;
28545;SDS011;15749;49.606;8.738;2023-09-30T18:40:28;3.75;;;2.85;;
28545;SDS011;15749;49.606;8.738;2023-09-30T18:42:59;3.92;;;3.03;;
28545;SDS011;15749;49.606;8.738;2023-09-30T18:45:29;6.80;;;3.30;;
28545;SDS011;15749;49.606;8.738;2023-09-30T18:48:01;4.25;;;3.10;;
28545;SDS011;15749;49.606;8.738;2023-09-30T18:50:44;5.70;;;3.50;;
28545;SDS011;15749;49.606;8.738;2023-09-30T18:53:14;5.00;;;3.37;;
28545;SDS011;15749;49.606;8.738;2023-09-30T18:55:45;5.73;;;3.30;;
28545;SDS011;15749;49.606;8.738;2023-09-30T18:58:17;4.17;;;3.17;;
28545;SDS011;15749;49.606;8.738;2023-09-30T19:00:47;4.67;;;3.20;;
28545;SDS011;15749;49.606;8.738;2023-09-30T19:03:18;5.43;;;2.97;;
28545;SDS011;15749;49.606;8.738;2023-09-30T19:05:48;5.60;;;3.33;;
28545;SDS011;15749;49.606;8.738;2023-09-30T19:08:23;4.88;;;3.15;;
28545;SDS011;15749;49.606;8.738;2023-09-30T19:10:53;5.50;;;3.00;;
28545;SDS011;15749;49.606;8.738;2023-09-30T19:13:26;3.80;;;2.73;;
28545;SDS011;15749;49.606;8.738;2023-09-30T19:15:55;5.67;;;3.50;;
28545;SDS011;15749;49.606;8.738;2023-09-30T19:18:25;3.77;;;3.00;;
28545;SDS011;15749;49.606;8.738;2023-09-30T19:20:55;3.80;;;3.20;;
28545;SDS011;15749;49.606;8.738;2023-09-30T19:23:24;4.43;;;3.10;;
28545;SDS011;15749;49.606;8.738;2023-09-30T19:25:55;3.70;;;3.17;;
28545;SDS011;15749;49.606;8.738;2023-09-30T19:28:24;5.50;;;3.27;;
28545;SDS011;15749;49.606;8.738;2023-09-30T19:30:56;3.73;;;2.90;;
28545;SDS011;15749;49.606;8.738;2023-09-30T19:33:27;5.57;;;3.10;;
28545;SDS011;15749;49.606;8.738;2023-09-30T19:35:59;4.90;;;3.13;;
28545;SDS011;15749;49.606;8.738;2023-09-30T19:38:28;3.97;;;3.28;;
28545;SDS011;15749;49.606;8.738;2023-09-30T19:40:57;5.18;;;3.30;;
28545;SDS011;15749;49.606;8.738;2023-09-30T19:43:26;3.93;;;2.90;;
28545;SDS011;15749;49.606;8.738;2023-09-30T19:45:57;10.93;;;3.67;;
28545;SDS011;15749;49.606;8.738;2023-09-30T19:48:28;5.20;;;3.30;;
28545;SDS011;15749;49.606;8.738;2023-09-30T19:50:57;4.27;;;3.63;;
28545;SDS011;15749;49.606;8.738;2023-09-30T19:53:26;2.93;;;2.63;;
28545;SDS011;15749;49.606;8.738;2023-09-30T19:56:01;4.17;;;3.03;;
28545;SDS011;15749;49.606;8.738;2023-09-30T19:58:31;4.83;;;3.70;;
28545;SDS011;15749;49.606;8.738;2023-09-30T20:01:05;5.70;;;4.03;;
28545;SDS011;15749;49.606;8.738;2023-09-30T20:03:36;5.13;;;3.90;;
28545;SDS011;15749;49.606;8.738;2023-09-30T20:06:15;3.23;;;2.93;;
28545;SDS011;15749;49.606;8.738;2023-09-30T20:08:46;4.90;;;3.80;;
28545;SDS011;15749;49.606;8.738;2023-09-30T20:11:19;4.87;;;3.77;;
28545;SDS011;15749;49.606;8.738;2023-09-30T20:13:50;4.83;;;4.30;;
28545;SDS011;15749;49.606;8.738;2023-09-30T20:16:22;5.43;;;3.87;;
28545;SDS011;15749;49.606;8.738;2023-09-30T20:18:54;4.80;;;3.93;;
28545;SDS011;15749;49.606;8.738;2023-09-30T20:21:24;4.63;;;3.97;;
28545;SDS011;15749;49.606;8.738;2023-09-30T20:23:53;6.43;;;5.07;;
28545;SDS011;15749;49.606;8.738;2023-09-30T20:26:22;5.07;;;4.40;;
28545;SDS011;15749;49.606;8.738;2023-09-30T20:28:53;6.20;;;4.67;;
28545;SDS011;15749;49.606;8.738;2023-09-30T20:31:26;5.10;;;4.60;;
28545;SDS011;15749;49.606;8.738;2023-09-30T20:33:57;6.47;;;4.20;;
28545;SDS011;15749;49.606;8.738;2023-09-30T20:36:26;5.43;;;4.30;;
28545;SDS011;15749;49.606;8.738;2023-09-30T20:38:55;4.80;;;4.07;;
28545;SDS011;15749;49.606;8.738;2023-09-30T20:41:26;6.20;;;4.10;;
28545;SDS011;15749;49.606;8.738;2023-09-30T20:43:56;5.30;;;4.20;;
28545;SDS011;15749;49.606;8.738;2023-09-30T20:46:25;5.47;;;4.43;;
28545;SDS011;15749;49.606;8.738;2023-09-30T20:48:54;6.10;;;4.23;;
28545;SDS011;15749;49.606;8.738;2023-09-30T20:51:25;5.50;;;4.50;;